Time;durP1;ratioP1;P1;durP2;ratioP2;P2;SDS_P1;SDS_P2;PMS_P1;PMS_P2;Temp;Humidity;BMP_temperature;BMP_pressure;BME280_temperature;BME280_humidity;BME280_pressure;Samples;Min_cycle;Max_cycle;Signal;HPM_P1;HPM_P2
2021/10/15 00:02:05;;;;;;;9.27;7.30;;;10.60;82.60;;;;;;5006313;28;20480;-42
2021/10/15 00:04:32;;;;;;;9.37;8.40;;;10.60;82.50;;;;;;5010022;28;20483;-42
2021/10/15 00:06:59;;;;;;;9.97;8.80;;;10.60;82.80;;;;;;5011581;28;20460;-42
2021/10/15 00:09:26;;;;;;;9.63;8.40;;;10.60;82.60;;;;;;5006258;28;21496;-42
2021/10/15 00:11:52;;;;;;;8.53;6.47;;;10.50;82.50;;;;;;4989932;28;20851;-42
2021/10/15 00:14:19;;;;;;;14.57;8.00;;;10.40;82.70;;;;;;5004277;28;20479;-42
2021/10/15 00:16:46;;;;;;;7.50;6.30;;;10.40;82.80;;;;;;5010469;28;20456;-42
2021/10/15 00:19:13;;;;;;;6.40;5.47;;;10.40;82.70;;;;;;5010452;28;20488;-42
2021/10/15 00:21:40;;;;;;;6.13;5.40;;;10.40;82.50;;;;;;5010143;28;20515;-42
2021/10/15 00:24:06;;;;;;;9.10;5.80;;;10.30;82.60;;;;;;5003511;28;20463;-42
2021/10/15 00:26:33;;;;;;;7.13;5.70;;;10.30;82.30;;;;;;5005565;28;20456;-42
2021/10/15 00:29:00;;;;;;;10.73;5.40;;;10.30;82.10;;;;;;5005557;28;20992;-42
2021/10/15 00:31:27;;;;;;;9.40;6.10;;;10.30;82.30;;;;;;5009012;28;20472;-42
2021/10/15 00:33:53;;;;;;;9.40;6.17;;;10.30;82.40;;;;;;5011981;28;20455;-42
2021/10/15 00:36:20;;;;;;;8.47;5.30;;;10.20;82.40;;;;;;5009207;28;20467;-42
2021/10/15 00:38:47;;;;;;;7.13;5.17;;;10.20;82.40;;;;;;4992799;28;20455;-42
2021/10/15 00:41:14;;;;;;;8.20;5.57;;;10.20;82.30;;;;;;5006643;28;20494;-42
2021/10/15 00:44:01;;;;;;;5.57;5.07;;;10.20;82.20;;;;;;5006431;28;20468;-42
2021/10/15 00:46:28;;;;;;;5.40;4.67;;;10.10;82.30;;;;;;5008094;28;20456;-42
2021/10/15 00:48:55;;;;;;;5.00;4.37;;;10.10;82.30;;;;;;5005756;28;20472;-42
2021/10/15 00:51:23;;;;;;;5.97;4.63;;;10.10;82.50;;;;;;5006643;28;20467;-42
2021/10/15 00:53:50;;;;;;;7.87;5.30;;;10.00;82.40;;;;;;5006775;28;20464;-42
2021/10/15 00:56:17;;;;;;;5.47;4.90;;;10.00;82.40;;;;;;5009958;28;20495;-42
2021/10/15 00:58:44;;;;;;;8.03;5.17;;;10.00;82.20;;;;;;4991833;28;20949;-42
2021/10/15 01:01:10;;;;;;;5.97;4.90;;;9.90;82.30;;;;;;5009097;28;20579;-42
2021/10/15 01:03:38;;;;;;;9.90;6.03;;;9.90;82.30;;;;;;4992288;28;21201;-42
2021/10/15 01:06:05;;;;;;;6.03;5.13;;;9.80;82.30;;;;;;5008078;28;20467;-42
2021/10/15 01:08:38;;;;;;;5.57;4.83;;;9.80;82.30;;;;;;5009138;28;20449;-42
2021/10/15 01:11:05;;;;;;;6.90;5.50;;;9.80;82.40;;;;;;5009644;28;20985;-42
2021/10/15 01:13:33;;;;;;;6.30;4.90;;;9.70;82.60;;;;;;5009185;28;20463;-42
2021/10/15 01:16:09;;;;;;;5.30;4.67;;;9.70;82.50;;;;;;5000591;28;20479;-42
2021/10/15 01:18:37;;;;;;;9.97;5.07;;;9.70;82.70;;;;;;5006605;28;20545;-42
2021/10/15 01:21:05;;;;;;;5.47;4.43;;;9.70;82.50;;;;;;5006436;28;20477;-42
2021/10/15 01:23:32;;;;;;;8.90;5.07;;;9.70;82.70;;;;;;5007819;28;20732;-42
2021/10/15 01:25:59;;;;;;;6.77;5.30;;;9.70;82.70;;;;;;5006963;28;20499;-42
2021/10/15 01:28:27;;;;;;;5.30;4.77;;;9.70;82.70;;;;;;4991126;28;20451;-42
2021/10/15 01:30:54;;;;;;;7.33;5.47;;;9.60;82.70;;;;;;5007416;28;20472;-42
2021/10/15 01:33:22;;;;;;;6.33;4.90;;;9.60;82.80;;;;;;5009761;28;21020;-42
2021/10/15 01:35:49;;;;;;;4.47;4.07;;;9.60;83.00;;;;;;5003520;28;20969;-42
2021/10/15 01:38:16;;;;;;;5.40;4.37;;;9.60;82.90;;;;;;5008351;28;20461;-42
2021/10/15 01:40:44;;;;;;;6.23;5.27;;;9.60;82.80;;;;;;5006806;28;20452;-42
2021/10/15 01:43:26;;;;;;;8.17;5.10;;;9.50;83.00;;;;;;5005517;28;20455;-42
2021/10/15 01:45:53;;;;;;;5.73;5.23;;;9.50;82.90;;;;;;5008334;28;20471;-42
2021/10/15 01:48:20;;;;;;;11.23;5.87;;;9.50;82.80;;;;;;5008595;28;20471;-42
2021/10/15 01:50:47;;;;;;;5.37;4.87;;;9.50;82.90;;;;;;5006685;28;20463;-42
2021/10/15 01:53:14;;;;;;;6.03;5.47;;;9.50;82.70;;;;;;5008381;28;20448;-42
2021/10/15 01:55:41;;;;;;;7.33;6.20;;;9.60;82.40;;;;;;5005822;28;20833;-42
2021/10/15 01:58:08;;;;;;;7.27;5.53;;;9.50;82.50;;;;;;5007751;28;20930;-42
2021/10/15 02:00:35;;;;;;;7.30;5.37;;;9.50;82.60;;;;;;5006680;28;20459;-42
2021/10/15 02:03:03;;;;;;;5.90;5.23;;;9.40;82.70;;;;;;5000700;28;20574;-42
2021/10/15 02:05:30;;;;;;;5.87;5.30;;;9.40;82.90;;;;;;5008174;28;20448;-42
2021/10/15 02:07:57;;;;;;;7.93;5.70;;;9.40;82.70;;;;;;5005923;28;20527;-42
2021/10/15 02:10:24;;;;;;;7.63;5.87;;;9.40;82.70;;;;;;4986817;28;20460;-42
2021/10/15 02:12:51;;;;;;;6.60;4.90;;;9.30;82.90;;;;;;5002331;28;20499;-42
2021/10/15 02:15:18;;;;;;;7.43;5.67;;;9.40;82.60;;;;;;4990670;28;20460;-42
2021/10/15 02:17:45;;;;;;;6.20;5.60;;;9.40;82.60;;;;;;5003943;28;20472;-42
2021/10/15 02:20:15;;;;;;;6.73;5.57;;;9.30;82.80;;;;;;5006651;28;20469;-43
2021/10/15 02:22:44;;;;;;;7.03;5.53;;;9.30;82.90;;;;;;5007639;28;20492;-42
2021/10/15 02:25:14;;;;;;;8.53;5.80;;;9.30;82.90;;;;;;4987663;28;20456;-42
2021/10/15 02:27:41;;;;;;;6.33;5.70;;;9.20;82.90;;;;;;5005867;28;20456;-42
2021/10/15 02:30:09;;;;;;;5.80;5.17;;;9.20;82.70;;;;;;5007575;28;20460;-42
2021/10/15 02:32:36;;;;;;;7.00;5.30;;;9.20;82.70;;;;;;4988581;28;20946;-42
2021/10/15 02:35:05;;;;;;;5.67;5.17;;;9.20;82.70;;;;;;4988452;28;20464;-42
2021/10/15 02:37:32;;;;;;;5.67;5.03;;;9.20;82.60;;;;;;5006861;28;20476;-42
2021/10/15 02:39:59;;;;;;;5.90;5.00;;;9.20;82.60;;;;;;5006107;28;20474;-42
2021/10/15 02:42:26;;;;;;;6.80;4.80;;;9.10;82.70;;;;;;5005520;28;21028;-42
2021/10/15 02:44:53;;;;;;;4.40;4.00;;;9.10;82.60;;;;;;5007013;28;20969;-42
2021/10/15 02:47:19;;;;;;;4.70;4.17;;;9.10;82.30;;;;;;5005502;28;20452;-42
2021/10/15 02:49:46;;;;;;;4.60;4.03;;;9.10;82.10;;;;;;5006020;28;20466;-42
2021/10/15 02:52:13;;;;;;;5.37;4.87;;;9.00;81.90;;;;;;5006385;28;20897;-42
2021/10/15 02:54:40;;;;;;;6.03;5.43;;;9.00;81.90;;;;;;4990269;28;20464;-42
2021/10/15 02:57:06;;;;;;;6.07;4.30;;;9.00;81.80;;;;;;5006156;28;21024;-44
2021/10/15 02:59:33;;;;;;;4.43;4.03;;;8.90;81.70;;;;;;5015150;28;20946;-44
2021/10/15 03:02:00;;;;;;;5.30;4.10;;;8.90;81.50;;;;;;5014896;28;20839;-44
2021/10/15 03:04:27;;;;;;;7.83;4.80;;;8.90;81.60;;;;;;4997348;28;21047;-44
2021/10/15 03:06:54;;;;;;;4.57;4.17;;;8.80;81.40;;;;;;5014755;28;20472;-44
2021/10/15 03:09:20;;;;;;;5.20;4.70;;;8.80;81.30;;;;;;5012535;28;20543;-44
2021/10/15 03:11:47;;;;;;;6.13;4.63;;;8.70;81.30;;;;;;5013263;28;20452;-44
2021/10/15 03:14:14;;;;;;;9.30;5.43;;;8.70;81.40;;;;;;5012841;28;20465;-43
2021/10/15 03:16:41;;;;;;;14.80;12.67;;;8.60;81.70;;;;;;5011551;28;20470;-44
2021/10/15 03:19:08;;;;;;;33.60;19.10;;;8.60;81.80;;;;;;5011253;28;20463;-44
2021/10/15 03:21:34;;;;;;;26.00;15.63;;;8.60;81.80;;;;;;5014858;28;20483;-44
2021/10/15 03:24:01;;;;;;;12.70;6.57;;;8.60;81.90;;;;;;5013217;28;20456;-44
2021/10/15 03:26:28;;;;;;;9.90;7.53;;;8.60;81.90;;;;;;5014108;28;20467;-44
2021/10/15 03:28:54;;;;;;;11.67;6.43;;;8.50;82.00;;;;;;5015921;28;20461;-44
2021/10/15 03:31:21;;;;;;;9.90;7.20;;;8.50;82.20;;;;;;5012119;28;20468;-44
2021/10/15 03:33:48;;;;;;;6.63;4.87;;;8.40;82.30;;;;;;5012196;28;20468;-44
2021/10/15 03:36:15;;;;;;;6.97;5.77;;;8.40;82.40;;;;;;5014394;28;20493;-44
2021/10/15 03:38:42;;;;;;;9.73;5.10;;;8.40;82.50;;;;;;5014335;28;20959;-44
2021/10/15 03:41:09;;;;;;;5.90;4.50;;;8.40;82.60;;;;;;5000763;28;20448;-44
2021/10/15 03:43:35;;;;;;;6.53;5.93;;;8.40;82.80;;;;;;4997574;28;20470;-44
2021/10/15 03:46:02;;;;;;;6.17;5.00;;;8.40;83.10;;;;;;5017508;28;20996;-44
2021/10/15 03:48:29;;;;;;;7.30;5.90;;;8.40;83.10;;;;;;5016832;28;20525;-44
2021/10/15 03:50:55;;;;;;;7.07;6.37;;;8.40;82.90;;;;;;5017601;28;20464;-44
2021/10/15 03:53:22;;;;;;;7.27;5.97;;;8.40;83.10;;;;;;5016608;28;20464;-44
2021/10/15 03:55:49;;;;;;;6.33;5.63;;;8.40;83.30;;;;;;5017029;28;20691;-44
2021/10/15 03:58:15;;;;;;;5.80;5.20;;;8.40;83.40;;;;;;4997753;28;20469;-44
2021/10/15 04:00:43;;;;;;;6.57;5.40;;;8.40;83.40;;;;;;5015419;28;20456;-44
2021/10/15 04:03:10;;;;;;;7.40;5.80;;;8.40;83.40;;;;;;5014770;28;20846;-44
2021/10/15 04:05:36;;;;;;;5.77;4.90;;;8.40;83.40;;;;;;5017569;28;20452;-44
2021/10/15 04:08:03;;;;;;;5.60;5.00;;;8.30;83.40;;;;;;5016782;28;20448;-44
2021/10/15 04:10:30;;;;;;;8.90;5.80;;;8.30;83.50;;;;;;5019001;28;20856;-44
2021/10/15 04:12:57;;;;;;;5.50;4.90;;;8.40;83.30;;;;;;5015464;28;20503;-44
2021/10/15 04:15:24;;;;;;;6.13;5.40;;;8.40;83.30;;;;;;5015083;28;20458;-44
2021/10/15 04:17:50;;;;;;;10.13;6.03;;;8.40;83.10;;;;;;5015864;28;20500;-44
2021/10/15 04:20:17;;;;;;;7.33;6.07;;;8.40;83.30;;;;;;5016990;28;20832;-44
2021/10/15 04:22:44;;;;;;;6.60;5.40;;;8.40;83.30;;;;;;5014857;28;20498;-44
2021/10/15 04:25:11;;;;;;;6.87;5.57;;;8.40;83.20;;;;;;5016338;28;20468;-44
2021/10/15 04:27:37;;;;;;;8.07;5.17;;;8.40;83.20;;;;;;5013268;28;20470;-44
2021/10/15 04:30:05;;;;;;;7.87;6.80;;;8.40;83.30;;;;;;5016662;28;20456;-44
2021/10/15 04:32:32;;;;;;;8.67;6.60;;;8.40;83.40;;;;;;5016388;28;20519;-44
2021/10/15 04:34:59;;;;;;;8.60;6.20;;;8.40;83.40;;;;;;5016206;28;20535;-44
2021/10/15 04:37:26;;;;;;;12.60;7.37;;;8.40;83.40;;;;;;5017394;28;20459;-44
2021/10/15 04:39:52;;;;;;;10.87;7.10;;;8.40;83.50;;;;;;5017062;28;20467;-44
2021/10/15 04:42:19;;;;;;;8.73;6.40;;;8.40;83.50;;;;;;5014061;28;20491;-43
2021/10/15 04:44:46;;;;;;;6.90;5.00;;;8.30;83.80;;;;;;5017473;28;20536;-44
2021/10/15 04:47:13;;;;;;;6.67;4.97;;;8.40;83.60;;;;;;5017054;28;20825;-44
2021/10/15 04:49:39;;;;;;;6.83;5.27;;;8.40;83.50;;;;;;5016167;28;20941;-44
2021/10/15 04:52:06;;;;;;;5.67;4.63;;;8.40;83.40;;;;;;5013282;28;20470;-44
2021/10/15 04:54:33;;;;;;;5.90;5.30;;;8.30;83.40;;;;;;5014999;28;20551;-44
2021/10/15 04:57:00;;;;;;;7.20;5.67;;;8.30;83.40;;;;;;5013252;28;20456;-44
2021/10/15 04:59:27;;;;;;;7.00;5.70;;;8.30;83.20;;;;;;5013916;28;20948;-44
2021/10/15 05:01:53;;;;;;;6.47;5.83;;;8.30;83.20;;;;;;5012391;28;20583;-44
2021/10/15 05:04:20;;;;;;;7.17;4.80;;;8.20;83.10;;;;;;5015750;28;20519;-44
2021/10/15 05:06:47;;;;;;;6.67;5.10;;;8.20;83.30;;;;;;5010700;28;20456;-44
2021/10/15 05:09:26;;;;;;;7.13;5.70;;;8.30;83.20;;;;;;5013396;28;20452;-44
2021/10/15 05:11:54;;;;;;;6.70;5.07;;;8.30;82.90;;;;;;5011205;28;20579;-44
2021/10/15 05:14:21;;;;;;;8.87;6.50;;;8.20;83.20;;;;;;4996846;28;20487;-44
2021/10/15 05:16:48;;;;;;;6.53;5.53;;;8.20;83.30;;;;;;4999332;28;20468;-44
2021/10/15 05:19:15;;;;;;;6.20;5.23;;;8.20;83.40;;;;;;5011008;28;20529;-44
2021/10/15 05:21:41;;;;;;;9.63;5.63;;;8.20;83.50;;;;;;4996869;28;20461;-44
2021/10/15 05:24:08;;;;;;;6.37;5.77;;;8.20;83.70;;;;;;5011367;28;20464;-43
2021/10/15 05:26:35;;;;;;;8.00;5.90;;;8.10;83.80;;;;;;5014872;28;20539;-43
2021/10/15 05:29:02;;;;;;;6.77;6.17;;;8.10;83.90;;;;;;5013499;28;20459;-43
2021/10/15 05:31:29;;;;;;;7.33;5.93;;;8.10;84.00;;;;;;5012906;28;20539;-43
2021/10/15 05:33:56;;;;;;;6.93;6.33;;;8.20;84.00;;;;;;5012825;28;20457;-44
2021/10/15 05:36:22;;;;;;;5.90;5.30;;;8.20;84.00;;;;;;5013016;28;20460;-44
2021/10/15 05:38:49;;;;;;;8.57;5.30;;;8.20;84.00;;;;;;5015716;28;22228;-44
2021/10/15 05:41:16;;;;;;;6.50;5.90;;;8.20;84.10;;;;;;5013944;28;20473;-44
2021/10/15 05:43:42;;;;;;;6.87;6.20;;;8.20;84.10;;;;;;5014743;28;20775;-44
2021/10/15 05:46:09;;;;;;;6.60;5.50;;;8.20;84.20;;;;;;5014817;28;20456;-44
2021/10/15 05:48:36;;;;;;;12.03;7.30;;;8.20;84.20;;;;;;5011704;28;20869;-43
2021/10/15 05:51:07;;;;;;;14.13;8.37;;;8.20;84.20;;;;;;5013905;28;20461;-44
2021/10/15 05:53:35;;;;;;;10.43;8.30;;;8.20;84.30;;;;;;5015841;28;20460;-44
2021/10/15 05:56:37;;;;;;;9.17;7.23;;;8.20;84.50;;;;;;5016675;28;20457;-44
2021/10/15 05:59:03;;;;;;;7.63;6.43;;;8.20;84.40;;;;;;5009003;28;20540;-43
2021/10/15 06:01:33;;;;;;;8.73;7.80;;;8.20;84.40;;;;;;5012023;28;20483;-43
2021/10/15 06:14:35;;;;;;;8.27;7.47;;;8.20;84.20;;;;;;5013160;28;20977;-43
2021/10/15 06:17:12;;;;;;;10.70;7.33;;;8.20;84.50;;;;;;5011074;28;20468;-43
2021/10/15 06:22:11;;;;;;;8.20;6.70;;;8.20;84.80;;;;;;5012091;28;20504;-43
2021/10/15 06:24:39;;;;;;;9.63;6.17;;;8.20;84.70;;;;;;5013021;28;20466;-43
2021/10/15 06:27:06;;;;;;;8.13;6.70;;;8.20;84.80;;;;;;5013313;28;20464;-43
2021/10/15 06:29:32;;;;;;;9.70;8.27;;;8.30;85.00;;;;;;5015379;28;20452;-43
2021/10/15 06:31:59;;;;;;;8.00;6.90;;;8.30;85.00;;;;;;4994379;28;20460;-43
2021/10/15 06:34:26;;;;;;;11.90;7.47;;;8.30;85.10;;;;;;5015961;28;20479;-43
2021/10/15 06:36:53;;;;;;;7.83;6.87;;;8.40;85.30;;;;;;5011830;28;20478;-43
2021/10/15 06:39:19;;;;;;;9.20;7.30;;;8.40;85.30;;;;;;5010475;28;20475;-43
2021/10/15 06:41:46;;;;;;;11.00;7.50;;;8.40;85.40;;;;;;5013619;28;20475;-43
2021/10/15 06:44:13;;;;;;;12.40;8.00;;;8.40;85.60;;;;;;5012848;28;20493;-43
2021/10/15 06:46:40;;;;;;;10.30;7.40;;;8.50;85.60;;;;;;5014032;28;20456;-43
2021/10/15 06:49:09;;;;;;;9.50;7.20;;;8.50;85.70;;;;;;4995220;28;20460;-43
2021/10/15 06:51:39;;;;;;;7.93;7.07;;;8.50;85.90;;;;;;5011956;28;20471;-43
2021/10/15 06:54:05;;;;;;;9.97;7.80;;;8.60;85.90;;;;;;5011631;28;20460;-43
2021/10/15 06:56:32;;;;;;;14.70;7.97;;;8.60;86.00;;;;;;5014536;28;20448;-43
2021/10/15 06:58:59;;;;;;;9.97;8.27;;;8.70;86.00;;;;;;5010453;28;20456;-43
2021/10/15 07:01:25;;;;;;;12.57;9.03;;;8.70;85.90;;;;;;4991813;28;20472;-43
2021/10/15 07:03:52;;;;;;;15.80;8.93;;;8.70;85.90;;;;;;5009707;28;20496;-43
2021/10/15 07:06:20;;;;;;;12.53;8.60;;;8.80;85.90;;;;;;5010747;28;20468;-43
2021/10/15 07:08:46;;;;;;;10.53;9.27;;;8.80;86.00;;;;;;5007813;28;20471;-43
2021/10/15 07:11:13;;;;;;;10.57;9.53;;;8.80;86.00;;;;;;5007157;28;20460;-43
2021/10/15 07:13:40;;;;;;;10.47;8.73;;;8.80;85.90;;;;;;5009979;28;20993;-43
2021/10/15 07:16:08;;;;;;;11.03;9.30;;;8.90;85.80;;;;;;5011699;28;20459;-43
2021/10/15 07:18:35;;;;;;;14.33;11.17;;;8.90;85.80;;;;;;4993111;28;20465;-43
2021/10/15 07:21:01;;;;;;;12.70;9.83;;;8.90;86.00;;;;;;5008959;28;20475;-43
2021/10/15 07:23:28;;;;;;;11.50;9.53;;;8.90;85.90;;;;;;5011673;28;20498;-43
2021/10/15 07:25:56;;;;;;;15.20;9.90;;;9.00;85.90;;;;;;5008732;28;20468;-43
2021/10/15 07:28:23;;;;;;;11.23;9.83;;;9.00;86.00;;;;;;4992937;28;20819;-43
2021/10/15 07:30:50;;;;;;;11.83;9.90;;;9.00;86.00;;;;;;5010421;28;20452;-43
2021/10/15 07:33:17;;;;;;;12.93;9.07;;;9.10;86.10;;;;;;4994989;28;20490;-43
2021/10/15 07:35:43;;;;;;;12.43;9.03;;;9.10;86.10;;;;;;4994367;28;20467;-43
2021/10/15 07:38:10;;;;;;;11.43;9.90;;;9.10;86.10;;;;;;5010091;28;20841;-43
2021/10/15 07:40:37;;;;;;;16.20;10.20;;;9.20;86.10;;;;;;5012126;28;20992;-43
2021/10/15 07:43:04;;;;;;;15.23;10.00;;;9.20;85.90;;;;;;5007033;28;20484;-43
2021/10/15 07:45:31;;;;;;;16.63;11.60;;;9.30;85.90;;;;;;4992841;28;20464;-43
2021/10/15 07:47:58;;;;;;;15.07;10.27;;;9.30;85.90;;;;;;5007166;28;20456;-43
2021/10/15 07:50:26;;;;;;;14.53;11.20;;;9.30;85.90;;;;;;5006803;28;20479;-44
2021/10/15 07:52:52;;;;;;;19.40;12.03;;;9.40;85.60;;;;;;5011164;28;20456;-44
2021/10/15 07:55:19;;;;;;;17.07;11.07;;;9.40;85.50;;;;;;5009879;28;20470;-44
2021/10/15 07:57:46;;;;;;;19.73;12.43;;;9.40;85.50;;;;;;5006122;28;20472;-44
2021/10/15 08:00:13;;;;;;;19.83;13.63;;;9.50;85.60;;;;;;5009471;28;20464;-44
2021/10/15 08:02:40;;;;;;;19.37;14.37;;;9.50;85.60;;;;;;5008060;28;20499;-44
2021/10/15 08:05:08;;;;;;;20.77;13.60;;;9.60;85.60;;;;;;5007173;28;20538;-44
2021/10/15 08:07:34;;;;;;;19.33;14.13;;;9.70;85.40;;;;;;5009188;28;21875;-44
2021/10/15 08:10:01;;;;;;;17.17;13.47;;;9.70;85.20;;;;;;5011665;28;20464;-44
2021/10/15 08:12:28;;;;;;;19.20;13.63;;;9.80;85.20;;;;;;5008547;28;20953;-44
2021/10/15 08:14:55;;;;;;;19.70;14.03;;;9.80;85.20;;;;;;5004465;28;20444;-44
2021/10/15 08:17:22;;;;;;;17.40;13.70;;;9.90;85.10;;;;;;5007074;28;20440;-43
2021/10/15 08:19:48;;;;;;;19.13;13.80;;;9.90;85.30;;;;;;5009590;28;20838;-43
2021/10/15 08:22:15;;;;;;;21.30;15.50;;;10.00;85.20;;;;;;5007316;28;20456;-44
2021/10/15 08:24:42;;;;;;;17.27;13.43;;;10.10;85.30;;;;;;5009496;28;20478;-44
2021/10/15 08:27:09;;;;;;;25.50;15.97;;;10.20;85.30;;;;;;5010847;28;20463;-44
2021/10/15 08:29:38;;;;;;;17.87;14.23;;;10.30;85.20;;;;;;5009837;28;20456;-43
2021/10/15 08:32:07;;;;;;;17.73;14.30;;;10.40;85.20;;;;;;5005286;28;20468;-44
2021/10/15 08:34:34;;;;;;;20.87;16.23;;;10.60;85.10;;;;;;5014189;28;20464;-43
2021/10/15 08:37:00;;;;;;;17.63;14.70;;;10.70;84.90;;;;;;5015132;28;20468;-43
2021/10/15 08:39:28;;;;;;;21.03;14.03;;;10.80;83.80;;;;;;5015158;28;20547;-44
2021/10/15 08:41:57;;;;;;;14.47;12.97;;;10.90;83.30;;;;;;5012915;28;20466;-44
2021/10/15 08:44:39;;;;;;;19.40;12.50;;;11.00;82.80;;;;;;5011768;28;20488;-43
2021/10/15 08:47:07;;;;;;;14.90;12.00;;;11.00;83.00;;;;;;5011562;28;20542;-44
2021/10/15 08:49:54;;;;;;;18.30;12.20;;;11.10;83.10;;;;;;5011403;28;21340;-44
2021/10/15 08:52:21;;;;;;;15.60;12.00;;;11.10;83.10;;;;;;5009769;28;20761;-43
2021/10/15 08:54:48;;;;;;;17.90;12.80;;;11.20;83.20;;;;;;5010586;28;20457;-43
2021/10/15 08:57:15;;;;;;;20.00;12.20;;;11.20;83.20;;;;;;5012152;28;20539;-43
2021/10/15 08:59:44;;;;;;;15.67;11.70;;;11.30;83.00;;;;;;5012021;28;20456;-43
2021/10/15 09:02:14;;;;;;;14.30;11.23;;;11.40;82.40;;;;;;5014065;28;20456;-43
2021/10/15 09:04:53;;;;;;;15.23;11.20;;;11.50;82.30;;;;;;5009759;28;20514;-43
2021/10/15 09:07:21;;;;;;;15.13;11.43;;;11.50;82.20;;;;;;4993829;28;20823;-43
2021/10/15 09:09:56;;;;;;;14.63;10.60;;;11.50;81.90;;;;;;5012235;28;20507;-44
2021/10/15 09:12:23;;;;;;;13.40;10.70;;;11.50;81.90;;;;;;5012723;28;20463;-43
2021/10/15 09:14:50;;;;;;;16.33;10.80;;;11.60;81.10;;;;;;5013686;28;20459;-43
2021/10/15 09:17:21;;;;;;;14.37;11.70;;;11.60;81.20;;;;;;5011707;28;20456;-43
2021/10/15 09:19:50;;;;;;;13.80;10.77;;;11.60;81.30;;;;;;5011842;28;20497;-43
2021/10/15 09:22:29;;;;;;;14.13;9.27;;;11.60;81.50;;;;;;5013423;28;20472;-43
2021/10/15 09:25:03;;;;;;;13.50;11.03;;;11.60;81.60;;;;;;5011047;28;20472;-43
2021/10/15 09:27:38;;;;;;;16.27;11.13;;;11.70;81.50;;;;;;5008632;28;20455;-43
2021/10/15 09:30:05;;;;;;;18.80;10.20;;;11.70;81.70;;;;;;5009279;28;20456;-43
2021/10/15 09:32:34;;;;;;;12.23;10.93;;;11.70;81.50;;;;;;5011258;28;20465;-43
2021/10/15 09:35:02;;;;;;;14.77;9.13;;;11.70;81.70;;;;;;5011457;28;20468;-43
2021/10/15 09:37:34;;;;;;;15.23;10.30;;;11.80;81.70;;;;;;5012601;28;20491;-44
2021/10/15 09:40:22;;;;;;;14.43;10.10;;;11.80;81.60;;;;;;5009470;28;20985;-44
2021/10/15 09:42:54;;;;;;;15.33;9.83;;;11.90;81.80;;;;;;5011263;28;20460;-43
2021/10/15 09:45:23;;;;;;;12.00;9.47;;;11.90;81.80;;;;;;5009353;28;20468;-43
2021/10/15 09:47:52;;;;;;;10.90;9.20;;;12.00;81.80;;;;;;5010899;28;20488;-43
2021/10/15 09:50:40;;;;;;;11.97;8.47;;;12.00;81.80;;;;;;5011512;28;20942;-43
2021/10/15 09:53:09;;;;;;;15.97;9.90;;;12.10;81.90;;;;;;5008588;28;20464;-43
2021/10/15 09:55:39;;;;;;;15.97;9.03;;;12.20;82.00;;;;;;5011948;28;20466;-44
2021/10/15 09:58:13;;;;;;;23.30;9.07;;;12.30;82.00;;;;;;5012279;28;20467;-44
2021/10/15 10:00:41;;;;;;;11.57;8.87;;;12.40;81.60;;;;;;5014533;28;20981;-44
2021/10/15 10:03:08;;;;;;;12.70;9.07;;;12.50;80.50;;;;;;5011900;28;20520;-44
2021/10/15 10:05:36;;;;;;;12.77;8.70;;;12.50;80.30;;;;;;4997579;28;20484;-44
2021/10/15 10:08:07;;;;;;;10.63;7.20;;;12.50;80.50;;;;;;5012555;28;20510;-44
2021/10/15 10:10:35;;;;;;;10.17;7.10;;;12.70;79.30;;;;;;5009975;28;20472;-44
2021/10/15 10:13:03;;;;;;;14.30;9.60;;;12.70;78.70;;;;;;5009334;28;20468;-44
2021/10/15 10:15:34;;;;;;;12.20;7.93;;;12.80;78.20;;;;;;5006706;28;20453;-44
2021/10/15 10:18:21;;;;;;;9.97;6.97;;;12.90;78.40;;;;;;5009947;28;20471;-44
2021/10/15 10:21:07;;;;;;;7.73;5.80;;;13.00;78.30;;;;;;5007602;28;20453;-44
2021/10/15 10:23:39;;;;;;;7.80;5.53;;;13.10;77.80;;;;;;5009379;28;20479;-44
2021/10/15 10:26:11;;;;;;;8.57;6.53;;;13.20;77.70;;;;;;5012124;28;20460;-44
2021/10/15 10:28:39;;;;;;;9.13;5.57;;;13.40;75.90;;;;;;5012224;28;20827;-45
2021/10/15 10:31:20;;;;;;;9.40;6.20;;;13.60;75.80;;;;;;5013620;28;20469;-44
2021/10/15 10:33:56;;;;;;;6.17;5.27;;;13.70;75.80;;;;;;5011852;28;20496;-44
2021/10/15 10:36:24;;;;;;;9.47;5.63;;;13.80;76.10;;;;;;5011370;28;20492;-44
2021/10/15 10:38:51;;;;;;;9.20;6.30;;;13.90;75.80;;;;;;5008955;28;20965;-44
2021/10/15 10:41:22;;;;;;;7.57;4.73;;;14.00;75.00;;;;;;5011662;28;20468;-44
2021/10/15 10:43:49;;;;;;;5.63;4.77;;;14.10;73.50;;;;;;5009371;28;20480;-44
2021/10/15 10:46:24;;;;;;;8.20;6.30;;;14.20;73.90;;;;;;5005417;28;20471;-44
2021/10/15 10:48:51;;;;;;;6.47;5.13;;;14.20;73.40;;;;;;5011487;28;20470;-44
2021/10/15 10:51:31;;;;;;;10.10;5.67;;;14.20;73.70;;;;;;5010741;28;20941;-44
2021/10/15 10:54:08;;;;;;;6.67;5.50;;;14.20;74.20;;;;;;5010148;28;20471;-44
2021/10/15 10:56:40;;;;;;;6.77;4.50;;;14.20;73.60;;;;;;5010700;28;20461;-44
2021/10/15 10:59:16;;;;;;;6.90;5.57;;;14.30;73.80;;;;;;5009776;28;20478;-44
2021/10/15 11:01:58;;;;;;;12.13;5.47;;;14.30;73.80;;;;;;5006667;28;20475;-44
2021/10/15 11:04:48;;;;;;;7.50;5.30;;;14.40;72.90;;;;;;5010165;28;20526;-44
2021/10/15 11:07:21;;;;;;;9.17;6.00;;;14.40;73.90;;;;;;5007192;28;20513;-44
2021/10/15 11:09:53;;;;;;;6.80;5.23;;;14.50;73.60;;;;;;5012584;28;20456;-45
2021/10/15 11:12:29;;;;;;;6.07;5.20;;;14.50;73.50;;;;;;5009469;28;20464;-45
2021/10/15 11:15:05;;;;;;;5.83;5.27;;;14.50;72.60;;;;;;5009269;28;20826;-44
2021/10/15 11:17:33;;;;;;;7.93;5.07;;;14.60;73.30;;;;;;5008349;28;22782;-44
2021/10/15 11:20:05;;;;;;;6.53;5.03;;;14.60;73.00;;;;;;5009110;28;20458;-45
2021/10/15 11:22:32;;;;;;;6.20;4.60;;;14.60;73.60;;;;;;5010013;28;21961;-44
2021/10/15 11:24:59;;;;;;;6.53;4.90;;;14.60;73.70;;;;;;5014637;28;20492;-44
2021/10/15 11:27:26;;;;;;;7.60;5.07;;;14.80;72.40;;;;;;5011187;28;20910;-44
2021/10/15 11:29:55;;;;;;;6.60;5.10;;;14.80;72.90;;;;;;4994830;28;20464;-44
2021/10/15 11:32:34;;;;;;;8.20;4.87;;;14.90;72.00;;;;;;4975436;28;20464;-44
2021/10/15 11:35:07;;;;;;;8.93;4.67;;;15.00;73.80;;;;;;5007583;28;20987;-45
2021/10/15 11:38:03;;;;;;;6.73;4.97;;;15.10;73.00;;;;;;5011412;28;20468;-45
2021/10/15 11:40:35;;;;;;;6.73;5.00;;;15.20;72.70;;;;;;5012151;28;20444;-45
2021/10/15 11:43:12;;;;;;;7.93;4.63;;;15.30;72.70;;;;;;5007404;28;20461;-44
2021/10/15 11:45:48;;;;;;;7.03;4.60;;;15.40;72.00;;;;;;5008869;28;20945;-44
2021/10/15 11:48:27;;;;;;;5.60;4.27;;;15.40;71.80;;;;;;5012330;28;20444;-45
2021/10/15 11:51:19;;;;;;;8.80;4.40;;;15.50;71.60;;;;;;4995170;28;20471;-43
2021/10/15 11:53:57;;;;;;;4.83;4.33;;;15.60;71.10;;;;;;5009378;28;20488;-43
2021/10/15 11:56:34;;;;;;;5.83;3.93;;;15.70;71.30;;;;;;5008520;28;20463;-43
2021/10/15 11:59:07;;;;;;;6.97;4.10;;;15.70;71.30;;;;;;5011225;28;20547;-44
2021/10/15 12:01:35;;;;;;;6.60;3.60;;;15.80;71.20;;;;;;5016617;28;20467;-44
2021/10/15 12:04:02;;;;;;;6.30;3.87;;;15.90;71.20;;;;;;5012574;28;20940;-44
2021/10/15 12:06:55;;;;;;;6.97;3.57;;;15.90;71.30;;;;;;5016003;28;20467;-44
2021/10/15 12:09:23;;;;;;;5.00;3.40;;;16.00;70.30;;;;;;5013666;28;20872;-44
2021/10/15 12:12:03;;;;;;;4.43;3.53;;;16.00;70.60;;;;;;5000473;28;20458;-44
2021/10/15 12:14:34;;;;;;;4.03;3.17;;;16.10;70.30;;;;;;5000247;28;20995;-44
2021/10/15 12:17:10;;;;;;;3.53;3.23;;;16.20;70.20;;;;;;5017676;28;20522;-44
2021/10/15 12:19:46;;;;;;;6.60;3.33;;;16.20;70.30;;;;;;5015587;28;20482;-44
2021/10/15 12:22:16;;;;;;;4.50;3.23;;;16.20;70.70;;;;;;5010763;28;20475;-44
2021/10/15 12:24:47;;;;;;;4.43;3.20;;;16.20;70.60;;;;;;5015535;28;20484;-44
2021/10/15 12:27:23;;;;;;;5.47;3.97;;;16.30;70.40;;;;;;5014694;28;20458;-44
2021/10/15 12:29:57;;;;;;;6.47;3.07;;;16.30;69.80;;;;;;5016381;28;20452;-44
2021/10/15 12:32:28;;;;;;;3.23;2.50;;;16.40;69.80;;;;;;5016739;28;20491;-44
2021/10/15 12:34:58;;;;;;;3.27;2.97;;;16.40;69.60;;;;;;5016866;28;20498;-44
2021/10/15 12:37:42;;;;;;;5.30;3.47;;;16.40;69.00;;;;;;5015180;28;20470;-47
2021/10/15 12:40:12;;;;;;;4.03;3.60;;;16.40;69.30;;;;;;5015683;28;20482;-44
2021/10/15 12:42:39;;;;;;;2.80;2.50;;;16.40;69.00;;;;;;5015544;28;20468;-44
2021/10/15 12:45:12;;;;;;;3.63;3.33;;;16.40;69.20;;;;;;5015255;28;20484;-44
2021/10/15 12:47:41;;;;;;;5.27;3.50;;;16.30;69.00;;;;;;5015522;28;20463;-44
2021/10/15 12:50:12;;;;;;;3.90;3.60;;;16.30;69.60;;;;;;5012111;28;20457;-44
2021/10/15 12:52:41;;;;;;;8.10;3.40;;;16.30;69.60;;;;;;5011321;28;21130;-44
2021/10/15 12:55:20;;;;;;;4.47;3.70;;;16.30;69.50;;;;;;5014475;28;20618;-44
2021/10/15 12:57:50;;;;;;;3.30;3.00;;;16.20;69.50;;;;;;5014392;28;20824;-44
2021/10/15 13:00:24;;;;;;;5.93;3.87;;;16.20;69.80;;;;;;5013433;28;20963;-44
2021/10/15 13:03:02;;;;;;;7.03;3.63;;;16.20;69.50;;;;;;5016574;28;20466;-44
2021/10/15 13:05:29;;;;;;;5.63;3.83;;;16.20;69.70;;;;;;5008234;28;20506;-44
2021/10/15 13:07:56;;;;;;;6.13;3.87;;;16.20;70.30;;;;;;4996541;28;20851;-44
2021/10/15 13:10:24;;;;;;;5.17;3.80;;;16.20;70.30;;;;;;5011921;28;20464;-45
2021/10/15 13:12:53;;;;;;;3.37;3.07;;;16.20;70.40;;;;;;5016427;28;20466;-44